Alts de Utuado, Puerto Rico
Current Conditions -  °F | °C
As of 5:50 AM on Saturday 20 Dec 2014 (Local Time) from TJPS Reporting Station
Few Clouds Few Clouds  
Wind Chill: 66°   Ceiling: Unl
Heat Index: 66°   Visibility: 8mi
Dew Point: 63°   Wind: 0mph
Humidity: 88%   Direction: NA
Pressure: 29.93"   Gusts: NA
Location:  18.2676°N, 66.7005°W
Report Text: TJPS 200950Z 00000KT 8SM FEW030 19/17 A2993
Loading
Personal Weather Stations






























Interactive Weather Map New forecast layout! Learn more

10-Day Weather Forecast

Advertisements
Track Severe Weather on mobile